Time;durP1;ratioP1;P1;durP2;ratioP2;P2;SDS_P1;SDS_P2;PMS_P1;PMS_P2;Temp;Humidity;BMP_temperature;BMP_pressure;BME280_temperature;BME280_humidity;BME280_pressure;Samples;Min_cycle;Max_cycle;Signal;HPM_P1;HPM_P2
2021/11/30 00:00:00;;;;;;;;;;;;;;;3.89;100.00;93107.50;10531053;28;19912;-75
2021/11/30 00:05:01;;;;;;;;;;;;;;;4.03;100.00;93114.88;10519849;28;19967;-72
2021/11/30 00:10:47;;;;;;;;;;;;;;;4.07;100.00;93121.25;10511458;28;19912;-78
2021/11/30 00:15:22;;;;;;;;;;;;;;;3.92;100.00;93117.59;10511070;28;19924;-76
2021/11/30 00:20:22;;;;;;;;;;;;;;;3.95;100.00;93113.59;10510900;28;20276;-76
2021/11/30 00:25:23;;;;;;;;;;;;;;;3.99;100.00;93119.16;10510071;28;19999;-79
2021/11/30 00:30:23;;;;;;;;;;;;;;;3.98;100.00;93109.56;10510286;28;19912;-77
2021/11/30 00:35:23;;;;;;;;;;;;;;;3.92;100.00;93109.63;10510089;28;19912;-76
2021/11/30 00:40:24;;;;;;;;;;;;;;;3.89;100.00;93099.53;10510268;28;19945;-73
2021/11/30 00:45:25;;;;;;;;;;;;;;;3.82;100.00;93101.66;10528168;28;20045;-75
2021/11/30 00:50:27;;;;;;;;;;;;;;;3.89;100.00;93102.19;10494136;28;19916;-76
2021/11/30 00:55:27;;;;;;;;;;;;;;;3.89;100.00;93104.84;10474590;28;19952;-74
2021/11/30 01:00:27;;;;;;;;;;;;;;;3.97;100.00;93108.78;10467704;28;20031;-77
2021/11/30 01:05:27;;;;;;;;;;;;;;;3.93;100.00;93103.25;10466690;28;19928;-74
2021/11/30 01:10:28;;;;;;;;;;;;;;;4.01;100.00;93103.75;10467782;28;20016;-78
2021/11/30 01:15:28;;;;;;;;;;;;;;;4.13;100.00;93098.09;10467111;28;20012;-73
2021/11/30 01:20:29;;;;;;;;;;;;;;;4.10;100.00;93078.97;10529986;28;20056;-74
2021/11/30 01:25:29;;;;;;;;;;;;;;;4.10;100.00;93078.16;10549828;28;19915;-73
2021/11/30 01:30:29;;;;;;;;;;;;;;;4.11;100.00;93074.44;10549778;28;19911;-76
2021/11/30 01:35:30;;;;;;;;;;;;;;;4.09;100.00;93089.88;10550982;28;19919;-76
2021/11/30 01:40:31;;;;;;;;;;;;;;;3.79;100.00;93091.56;10568274;28;20025;-73
2021/11/30 01:50:33;;;;;;;;;;;;;;;3.97;100.00;93102.69;10535081;28;19916;-76
2021/11/30 01:55:33;;;;;;;;;;;;;;;3.97;100.00;93110.66;10507534;28;20376;-75
2021/11/30 02:00:36;;;;;;;;;;;;;;;3.04;100.00;93105.53;10506913;28;19957;-73
2021/11/30 02:05:37;;;;;;;;;;;;;;;2.36;100.00;93106.56;10507316;28;19923;-73
2021/11/30 02:10:39;;;;;;;;;;;;;;;1.20;100.00;93112.69;10507165;28;19923;-72
2021/11/30 02:15:44;;;;;;;;;;;;;;;0.45;100.00;93118.69;10506777;28;20386;-77
2021/11/30 02:20:46;;;;;;;;;;;;;;;0.01;100.00;93131.19;10559434;28;20429;-73
2021/11/30 02:25:47;;;;;;;;;;;;;;;-0.18;100.00;93136.78;10548603;28;20496;-75
2021/11/30 02:30:47;;;;;;;;;;;;;;;-0.47;100.00;93149.38;10551577;28;20023;-73
2021/11/30 02:35:47;;;;;;;;;;;;;;;-0.66;100.00;93151.47;10556923;28;19919;-73
2021/11/30 02:40:48;;;;;;;;;;;;;;;-0.73;100.00;93170.09;10555823;28;20292;-75
2021/11/30 02:45:48;;;;;;;;;;;;;;;-0.81;100.00;93171.31;10574363;28;19916;-73
2021/11/30 02:50:49;;;;;;;;;;;;;;;-0.79;100.00;93189.53;10521083;28;20355;-74
2021/11/30 02:55:49;;;;;;;;;;;;;;;-0.85;100.00;93196.56;10513576;28;19916;-75
2021/11/30 03:00:50;;;;;;;;;;;;;;;-0.73;100.00;93204.38;10513482;28;19955;-75
2021/11/30 03:05:50;;;;;;;;;;;;;;;-0.66;100.00;93212.16;10513555;28;19916;-73
2021/11/30 03:10:52;;;;;;;;;;;;;;;-0.69;100.00;93230.03;10531317;28;19959;-73
2021/11/30 03:15:56;;;;;;;;;;;;;;;-0.68;100.00;93244.06;10512535;28;20390;-73
2021/11/30 03:20:56;;;;;;;;;;;;;;;-0.53;100.00;93254.84;10532430;28;19912;-73
2021/11/30 03:25:57;;;;;;;;;;;;;;;-0.53;100.00;93260.13;10572481;28;19923;-74
2021/11/30 03:31:03;;;;;;;;;;;;;;;-0.46;100.00;93267.06;10554457;28;19912;-74
2021/11/30 03:36:03;;;;;;;;;;;;;;;-0.61;100.00;93281.63;10572200;28;19912;-74
2021/11/30 03:41:03;;;;;;;;;;;;;;;-0.44;100.00;93286.09;10553527;28;20374;-74
2021/11/30 03:46:04;;;;;;;;;;;;;;;-0.50;100.00;93287.88;10554502;28;19931;-79
2021/11/30 03:51:04;;;;;;;;;;;;;;;-0.65;100.00;93291.06;10516721;28;19931;-73
2021/11/30 03:56:05;;;;;;;;;;;;;;;-0.72;100.00;93307.03;10529230;28;19969;-72
2021/11/30 04:01:05;;;;;;;;;;;;;;;-0.84;100.00;93314.22;10511684;28;19920;-73
2021/11/30 04:06:05;;;;;;;;;;;;;;;-0.79;100.00;93316.94;10529728;28;19965;-76
2021/11/30 04:11:06;;;;;;;;;;;;;;;-0.81;100.00;93321.66;10521992;28;19912;-74
2021/11/30 04:16:06;;;;;;;;;;;;;;;-0.76;100.00;93334.13;10523722;28;19931;-74
2021/11/30 04:21:07;;;;;;;;;;;;;;;-0.66;100.00;93339.56;10536325;28;20422;-73
2021/11/30 04:26:07;;;;;;;;;;;;;;;-0.70;100.00;93356.91;10528442;28;19927;-74
2021/11/30 04:31:07;;;;;;;;;;;;;;;-0.70;100.00;93360.38;10528905;28;19973;-74
2021/11/30 04:36:09;;;;;;;;;;;;;;;-0.72;100.00;93362.44;10510473;28;19920;-74
2021/11/30 04:41:09;;;;;;;;;;;;;;;-0.56;100.00;93378.53;10527366;28;19977;-76
2021/11/30 04:46:39;;;;;;;;;;;;;;;-0.70;100.00;93385.94;10509377;28;19923;-75
2021/11/30 04:51:35;;;;;;;;;;;;;;;-0.79;100.00;93397.91;10485536;28;20463;-74
2021/11/30 04:56:35;;;;;;;;;;;;;;;-0.79;100.00;93403.19;10486453;28;20058;-73
2021/11/30 05:01:35;;;;;;;;;;;;;;;-0.99;100.00;93420.22;10485106;28;20363;-76
2021/11/30 05:06:36;;;;;;;;;;;;;;;-1.24;100.00;93426.59;10483500;28;19920;-75
2021/11/30 05:11:37;;;;;;;;;;;;;;;-1.25;100.00;93447.91;10508184;28;19916;-75
2021/11/30 05:16:39;;;;;;;;;;;;;;;-1.32;100.00;93455.94;10506855;28;19924;-72
2021/11/30 05:21:39;;;;;;;;;;;;;;;-1.38;100.00;93462.13;10505320;28;19913;-71
2021/11/30 05:26:40;;;;;;;;;;;;;;;-1.42;100.00;93477.59;10494270;28;20041;-72
2021/11/30 05:31:40;;;;;;;;;;;;;;;-1.51;100.00;93478.97;10482425;28;19948;-76
2021/11/30 05:36:40;;;;;;;;;;;;;;;-1.62;100.00;93485.84;10465650;28;20553;-72
2021/11/30 05:41:40;;;;;;;;;;;;;;;-1.69;100.00;93503.56;10483854;28;20339;-76
2021/11/30 05:46:41;;;;;;;;;;;;;;;-1.74;100.00;93514.00;10484467;28;19916;-72
2021/11/30 05:51:41;;;;;;;;;;;;;;;-1.64;100.00;93534.53;10507055;28;19912;-77
2021/11/30 05:56:42;;;;;;;;;;;;;;;-1.66;100.00;93541.84;10506992;28;19912;-74
2021/11/30 06:01:42;;;;;;;;;;;;;;;-1.60;100.00;93547.00;10506063;28;19912;-73
2021/11/30 06:06:43;;;;;;;;;;;;;;;-1.63;100.00;93560.63;10496832;28;19916;-76
2021/11/30 06:11:45;;;;;;;;;;;;;;;-1.75;100.00;93571.13;10533687;28;19912;-74
2021/11/30 06:16:45;;;;;;;;;;;;;;;-1.82;100.00;93586.22;10511857;28;19932;-73
2021/11/30 06:21:47;;;;;;;;;;;;;;;-1.79;100.00;93603.41;10490895;28;19932;-76
2021/11/30 06:26:49;;;;;;;;;;;;;;;-1.71;100.00;93611.00;10482890;28;19916;-79
2021/11/30 06:31:50;;;;;;;;;;;;;;;-1.75;100.00;93617.75;10531851;28;19912;-77
2021/11/30 06:36:51;;;;;;;;;;;;;;;-1.60;100.00;93622.59;10514001;28;20356;-73
2021/11/30 06:41:51;;;;;;;;;;;;;;;-1.82;100.00;93641.53;10514102;28;19969;-73
2021/11/30 06:46:51;;;;;;;;;;;;;;;-1.72;100.00;93647.09;10512965;28;19916;-73
2021/11/30 06:51:51;;;;;;;;;;;;;;;-1.82;100.00;93659.19;10512807;28;20339;-78
2021/11/30 06:56:52;;;;;;;;;;;;;;;-1.80;100.00;93659.75;10513035;28;19913;-77
2021/11/30 07:01:52;;;;;;;;;;;;;;;-1.90;100.00;93670.81;10512339;28;19958;-72
2021/11/30 07:12:11;;;;;;;;;;;;;;;-1.90;100.00;93697.13;10530437;28;19916;-73
2021/11/30 07:17:11;;;;;;;;;;;;;;;-1.88;100.00;93697.75;10532897;28;20389;-76
2021/11/30 07:22:12;;;;;;;;;;;;;;;-1.92;100.00;93720.28;10512474;28;19912;-73
2021/11/30 07:27:12;;;;;;;;;;;;;;;-1.91;100.00;93727.94;10512220;28;20408;-75
2021/11/30 07:32:12;;;;;;;;;;;;;;;-1.88;100.00;93726.72;10530734;28;19935;-72
2021/11/30 07:37:12;;;;;;;;;;;;;;;-1.83;100.00;93729.47;10512522;28;20329;-77
2021/11/30 07:42:13;;;;;;;;;;;;;;;-1.72;100.00;93754.25;10510352;28;20297;-72
2021/11/30 07:47:13;;;;;;;;;;;;;;;-1.61;100.00;93768.53;10511853;28;19923;-77
2021/11/30 07:52:13;;;;;;;;;;;;;;;-1.60;100.00;93770.16;10511067;28;20322;-73
2021/11/30 07:57:14;;;;;;;;;;;;;;;-1.56;100.00;93787.13;10510837;28;20011;-77
2021/11/30 08:02:14;;;;;;;;;;;;;;;-1.22;100.00;93801.47;10510699;28;19940;-74
2021/11/30 08:07:16;;;;;;;;;;;;;;;-0.99;100.00;93807.88;10510227;28;19920;-73
2021/11/30 08:12:17;;;;;;;;;;;;;;;-1.23;100.00;93820.97;10509394;28;19912;-77
2021/11/30 08:17:19;;;;;;;;;;;;;;;-1.17;100.00;93821.09;10509438;28;20490;-75
2021/11/30 08:22:20;;;;;;;;;;;;;;;-1.40;100.00;93833.13;10509842;28;19953;-73
2021/11/30 08:27:20;;;;;;;;;;;;;;;-1.41;100.00;93849.97;10509119;28;19992;-77
2021/11/30 08:32:22;;;;;;;;;;;;;;;-1.23;100.00;93846.50;10509619;28;19913;-74
2021/11/30 08:37:23;;;;;;;;;;;;;;;-1.02;100.00;93861.03;10509656;28;19916;-78
2021/11/30 08:42:24;;;;;;;;;;;;;;;-1.10;100.00;93849.00;10508960;28;19912;-74
2021/11/30 08:47:24;;;;;;;;;;;;;;;-1.09;100.00;93861.16;10492428;28;19931;-74
2021/11/30 08:52:30;;;;;;;;;;;;;;;-1.26;100.00;93866.22;10509067;28;19926;-74
2021/11/30 08:57:30;;;;;;;;;;;;;;;-1.30;100.00;93880.06;10508526;28;19912;-76
2021/11/30 09:02:30;;;;;;;;;;;;;;;-1.24;100.00;93890.53;10508415;28;19912;-75
2021/11/30 09:07:31;;;;;;;;;;;;;;;-1.31;100.00;93900.34;10508509;28;20285;-76
2021/11/30 09:12:31;;;;;;;;;;;;;;;-1.24;100.00;93908.19;10508711;28;19990;-74
2021/11/30 09:17:32;;;;;;;;;;;;;;;-1.07;100.00;93926.84;10508030;28;19989;-78
2021/11/30 09:22:32;;;;;;;;;;;;;;;-0.99;100.00;93925.72;10507855;28;20471;-78
2021/11/30 09:27:33;;;;;;;;;;;;;;;-0.93;100.00;93916.97;10525666;28;19917;-74
2021/11/30 09:32:33;;;;;;;;;;;;;;;-1.24;100.00;93913.47;10526743;28;19912;-73
2021/11/30 09:37:37;;;;;;;;;;;;;;;-1.22;100.00;93917.47;10507754;28;19959;-74
2021/11/30 09:42:38;;;;;;;;;;;;;;;-0.83;100.00;93929.63;10525039;28;19917;-74
2021/11/30 09:47:39;;;;;;;;;;;;;;;-1.23;100.00;93954.59;10526201;28;20460;-74
2021/11/30 09:52:39;;;;;;;;;;;;;;;-0.85;100.00;93950.94;10525289;28;19942;-73
2021/11/30 09:57:40;;;;;;;;;;;;;;;-0.90;100.00;93962.13;10450397;28;19912;-73
2021/11/30 10:02:40;;;;;;;;;;;;;;;-0.99;100.00;93952.94;10465708;28;19919;-71
2021/11/30 10:07:42;;;;;;;;;;;;;;;-1.36;100.00;93965.28;10465837;28;20311;-78
2021/11/30 10:12:43;;;;;;;;;;;;;;;-1.45;100.00;93978.75;10481789;28;19919;-71
2021/11/30 10:17:43;;;;;;;;;;;;;;;-1.25;100.00;93975.91;10464921;28;19982;-72
2021/11/30 10:22:46;;;;;;;;;;;;;;;-1.16;100.00;93980.91;10483164;28;20006;-73
2021/11/30 10:27:56;;;;;;;;;;;;;;;-1.47;100.00;93978.16;10465291;28;20298;-74
2021/11/30 10:32:58;;;;;;;;;;;;;;;-1.25;100.00;93985.66;10505517;28;19957;-73
2021/11/30 10:38:00;;;;;;;;;;;;;;;-1.21;100.00;93984.19;10506422;28;19912;-77
2021/11/30 10:43:01;;;;;;;;;;;;;;;-1.13;100.00;93986.56;10505698;28;19985;-77
2021/11/30 10:48:10;;;;;;;;;;;;;;;-1.16;100.00;93997.50;10506125;28;19916;-73
2021/11/30 10:53:14;;;;;;;;;;;;;;;-0.87;100.00;93987.28;10530676;28;20393;-73
2021/11/30 10:58:16;;;;;;;;;;;;;;;-0.41;100.00;93991.19;10513578;28;19919;-77
2021/11/30 11:03:23;;;;;;;;;;;;;;;-0.06;100.00;93993.13;10506372;28;19923;-76
2021/11/30 11:08:24;;;;;;;;;;;;;;;0.06;100.00;93984.47;10471875;28;19943;-76
2021/11/30 11:13:31;;;;;;;;;;;;;;;0.59;100.00;93978.31;10471454;28;19939;-72
2021/11/30 11:18:36;;;;;;;;;;;;;;;0.74;100.00;93977.03;10471370;28;20397;-81
2021/11/30 11:23:42;;;;;;;;;;;;;;;0.22;100.00;93990.91;10471008;28;19916;-81
2021/11/30 11:28:42;;;;;;;;;;;;;;;0.57;100.00;93983.00;10470799;28;20412;-78
2021/11/30 11:33:43;;;;;;;;;;;;;;;0.56;100.00;93983.25;10487474;28;19912;-76
2021/11/30 11:38:44;;;;;;;;;;;;;;;1.39;100.00;93983.19;10470920;28;19922;-74
2021/11/30 11:43:44;;;;;;;;;;;;;;;1.14;100.00;93995.66;10469906;28;19913;-76
2021/11/30 11:48:45;;;;;;;;;;;;;;;0.88;100.00;94004.06;10494025;28;19920;-73
2021/11/30 11:53:50;;;;;;;;;;;;;;;0.50;100.00;94009.59;10511179;28;20388;-71
2021/11/30 11:59:06;;;;;;;;;;;;;;;-0.21;100.00;94019.16;10511315;28;19969;-75
2021/11/30 12:04:07;;;;;;;;;;;;;;;-0.47;100.00;94020.31;10510353;28;20003;-73
2021/11/30 12:09:11;;;;;;;;;;;;;;;-0.31;100.00;94026.81;10493983;28;19927;-76
2021/11/30 12:14:16;;;;;;;;;;;;;;;-0.14;100.00;94021.72;10528431;28;19927;-77
2021/11/30 12:19:24;;;;;;;;;;;;;;;-0.47;100.00;94022.97;10510508;28;19924;-74
2021/11/30 12:24:39;;;;;;;;;;;;;;;-0.23;100.00;94021.22;10494297;28;19923;-73
2021/11/30 12:29:40;;;;;;;;;;;;;;;-0.25;100.00;94028.53;10510210;28;19973;-73
2021/11/30 12:34:43;;;;;;;;;;;;;;;-0.37;100.00;94039.84;10509354;28;19916;-74
2021/11/30 12:39:50;;;;;;;;;;;;;;;-0.25;100.00;94042.56;10508856;28;20465;-74
2021/11/30 12:44:50;;;;;;;;;;;;;;;-0.19;100.00;94056.72;10509259;28;19951;-74
2021/11/30 12:49:51;;;;;;;;;;;;;;;-0.08;100.00;94050.69;10509125;28;20433;-74
2021/11/30 12:54:54;;;;;;;;;;;;;;;-0.29;100.00;94070.44;10509044;28;19919;-79
2021/11/30 12:59:56;;;;;;;;;;;;;;;-0.39;100.00;94070.16;10508189;28;20489;-77
2021/11/30 13:05:03;;;;;;;;;;;;;;;-0.86;100.00;94079.38;10507961;28;20388;-77
2021/11/30 13:10:04;;;;;;;;;;;;;;;-1.07;100.00;94082.44;10507935;28;19912;-74
2021/11/30 13:15:04;;;;;;;;;;;;;;;-1.52;100.00;94078.13;10506590;28;19963;-77
2021/11/30 13:20:15;;;;;;;;;;;;;;;-1.75;100.00;94087.41;10508456;28;20453;-79
2021/11/30 13:25:21;;;;;;;;;;;;;;;-1.88;100.00;94084.84;10507364;28;19916;-73
2021/11/30 13:30:24;;;;;;;;;;;;;;;-2.07;100.00;94116.34;10507563;28;20233;-76
2021/11/30 13:35:29;;;;;;;;;;;;;;;-1.98;100.00;94122.19;10507633;28;20306;-81
2021/11/30 13:40:41;;;;;;;;;;;;;;;-2.04;100.00;94120.38;10507310;28;19916;-75
2021/11/30 13:45:45;;;;;;;;;;;;;;;-2.19;100.00;94125.94;10506997;28;19923;-78
2021/11/30 13:50:45;;;;;;;;;;;;;;;-2.12;100.00;94125.88;10518524;22;20291;-74
2021/11/30 13:55:51;;;;;;;;;;;;;;;-2.20;100.00;94126.16;10440871;28;19912;-77
2021/11/30 14:01:09;;;;;;;;;;;;;;;-2.17;100.00;94152.84;10441381;28;19969;-77
2021/11/30 14:06:16;;;;;;;;;;;;;;;-2.05;100.00;94158.28;10423392;28;19952;-79
2021/11/30 14:11:18;;;;;;;;;;;;;;;-1.92;100.00;94147.66;10385671;28;19917;-76
2021/11/30 14:16:20;;;;;;;;;;;;;;;-1.51;100.00;94163.25;10382617;28;20008;-81
2021/11/30 14:21:22;;;;;;;;;;;;;;;-1.37;100.00;94164.78;10400385;28;19971;-74
2021/11/30 14:26:22;;;;;;;;;;;;;;;-1.23;100.00;94166.31;10385602;28;20026;-78
2021/11/30 14:31:23;;;;;;;;;;;;;;;-1.24;100.00;94183.16;10390009;28;19913;-75
2021/11/30 14:36:24;;;;;;;;;;;;;;;-1.44;100.00;94195.66;10390073;28;19920;-76
2021/11/30 14:41:31;;;;;;;;;;;;;;;-1.51;100.00;94192.25;10403130;28;19917;-78
2021/11/30 14:46:31;;;;;;;;;;;;;;;-1.50;100.00;94183.34;10430747;28;19921;-73
2021/11/30 14:51:32;;;;;;;;;;;;;;;-1.50;100.00;94188.59;10429952;28;19925;-80
2021/11/30 14:56:41;;;;;;;;;;;;;;;-1.84;100.00;94190.56;10430096;28;20353;-79
2021/11/30 15:01:44;;;;;;;;;;;;;;;-1.85;100.00;94199.53;10430206;28;19916;-75
2021/11/30 15:06:48;;;;;;;;;;;;;;;-1.82;100.00;94199.88;10429976;28;20455;-79
2021/11/30 15:11:53;;;;;;;;;;;;;;;-2.11;100.00;94209.13;10431855;28;19917;-77
2021/11/30 15:16:53;;;;;;;;;;;;;;;-2.11;100.00;94227.53;10435535;28;19920;-78
2021/11/30 15:21:57;;;;;;;;;;;;;;;-2.13;100.00;94246.19;10436846;28;19912;-75
2021/11/30 15:26:57;;;;;;;;;;;;;;;-2.11;100.00;94251.25;10429715;28;19923;-74
2021/11/30 15:31:59;;;;;;;;;;;;;;;-2.19;100.00;94254.09;10445974;28;19913;-73
2021/11/30 15:37:00;;;;;;;;;;;;;;;-2.17;100.00;94259.97;10457558;28;19913;-73
2021/11/30 15:42:03;;;;;;;;;;;;;;;-2.22;100.00;94257.94;10452202;28;19912;-73
2021/11/30 15:47:04;;;;;;;;;;;;;;;-2.20;100.00;94266.44;10442290;28;19924;-75
2021/11/30 15:52:05;;;;;;;;;;;;;;;-2.25;100.00;94279.41;10441802;28;19928;-78
2021/11/30 15:57:24;;;;;;;;;;;;;;;-1.96;100.00;94299.19;10429710;28;19970;-73
2021/11/30 16:02:26;;;;;;;;;;;;;;;-1.67;100.00;94315.56;10429115;28;20378;-77
2021/11/30 16:07:27;;;;;;;;;;;;;;;-1.45;100.00;94315.25;10404016;28;19924;-76
2021/11/30 16:12:27;;;;;;;;;;;;;;;-1.51;100.00;94331.91;10428130;28;19932;-77
2021/11/30 16:17:30;;;;;;;;;;;;;;;-1.41;100.00;94338.38;10402510;28;19913;-74
2021/11/30 16:22:31;;;;;;;;;;;;;;;-1.47;100.00;94336.56;10403964;28;19917;-77
2021/11/30 16:27:31;;;;;;;;;;;;;;;-1.46;100.00;94340.03;10418675;28;19936;-76
2021/11/30 16:32:31;;;;;;;;;;;;;;;-1.49;100.00;94361.50;10428053;28;19923;-77
2021/11/30 16:37:33;;;;;;;;;;;;;;;-1.44;100.00;94348.50;10435867;28;20293;-81
2021/11/30 16:42:34;;;;;;;;;;;;;;;-1.51;100.00;94350.38;10438952;28;19913;-72
2021/11/30 16:47:34;;;;;;;;;;;;;;;-1.62;100.00;94350.00;10395034;28;20387;-75
2021/11/30 16:52:35;;;;;;;;;;;;;;;-1.64;100.00;94343.31;10384318;28;19925;-76
2021/11/30 16:57:36;;;;;;;;;;;;;;;-1.64;100.00;94338.03;10369825;28;20012;-74
2021/11/30 17:02:36;;;;;;;;;;;;;;;-1.63;100.00;94355.44;10422968;28;19991;-74
2021/11/30 17:07:36;;;;;;;;;;;;;;;-1.63;100.00;94360.72;10422879;28;19916;-74
2021/11/30 17:12:37;;;;;;;;;;;;;;;-1.69;100.00;94370.25;10441411;28;19951;-78
2021/11/30 17:17:38;;;;;;;;;;;;;;;-1.67;100.00;94352.44;10424263;28;19913;-78
2021/11/30 17:22:39;;;;;;;;;;;;;;;-1.62;100.00;94362.34;10424813;28;19962;-74
2021/11/30 17:27:42;;;;;;;;;;;;;;;-1.65;100.00;94368.84;10415705;28;20355;-73
2021/11/30 17:32:43;;;;;;;;;;;;;;;-1.68;100.00;94381.63;10406876;28;20326;-73
2021/11/30 17:37:45;;;;;;;;;;;;;;;-1.57;100.00;94392.34;10398762;28;19917;-81
2021/11/30 17:42:45;;;;;;;;;;;;;;;-1.39;100.00;94381.13;10399457;28;20014;-77
2021/11/30 17:47:45;;;;;;;;;;;;;;;-1.44;100.00;94385.41;10399371;28;20024;-75
2021/11/30 17:52:46;;;;;;;;;;;;;;;-1.49;100.00;94404.50;10394726;28;19928;-74
2021/11/30 17:57:46;;;;;;;;;;;;;;;-1.42;100.00;94393.94;10423246;28;19985;-73
2021/11/30 18:02:49;;;;;;;;;;;;;;;-1.32;100.00;94399.56;10429558;28;20378;-74
2021/11/30 18:07:50;;;;;;;;;;;;;;;-1.40;100.00;94405.06;10431525;28;19998;-75
2021/11/30 18:12:53;;;;;;;;;;;;;;;-1.56;100.00;94407.13;10431002;28;19916;-74
2021/11/30 18:17:54;;;;;;;;;;;;;;;-1.61;100.00;94408.78;10432187;28;19985;-78
2021/11/30 18:22:54;;;;;;;;;;;;;;;-1.63;100.00;94410.78;10425538;28;19942;-74
2021/11/30 18:27:54;;;;;;;;;;;;;;;-1.72;100.00;94403.13;10430677;28;19923;-73
2021/11/30 18:32:55;;;;;;;;;;;;;;;-1.73;100.00;94398.03;10448043;28;19987;-74
2021/11/30 18:37:55;;;;;;;;;;;;;;;-1.65;100.00;94397.81;10429536;28;20382;-74
2021/11/30 18:42:57;;;;;;;;;;;;;;;-1.63;100.00;94394.97;10429868;28;19920;-77
2021/11/30 18:47:58;;;;;;;;;;;;;;;-1.61;100.00;94398.22;10430082;28;19925;-74
2021/11/30 18:52:58;;;;;;;;;;;;;;;-1.52;100.00;94388.25;10430010;28;19920;-75
2021/11/30 18:57:59;;;;;;;;;;;;;;;-1.62;100.00;94391.34;10423088;28;19921;-74
2021/11/30 19:02:59;;;;;;;;;;;;;;;-1.70;100.00;94404.72;10432759;28;19913;-73
2021/11/30 19:08:00;;;;;;;;;;;;;;;-1.87;100.00;94402.53;10431286;28;19917;-79
2021/11/30 19:13:01;;;;;;;;;;;;;;;-1.91;100.00;94407.38;10429459;28;20338;-79
2021/11/30 19:18:01;;;;;;;;;;;;;;;-1.83;100.00;94395.00;10427034;28;19931;-73
2021/11/30 19:23:01;;;;;;;;;;;;;;;-1.95;100.00;94389.56;10425326;28;19990;-73
2021/11/30 19:28:05;;;;;;;;;;;;;;;-2.14;100.00;94399.09;10425651;28;20394;-73
2021/11/30 19:33:05;;;;;;;;;;;;;;;-2.00;100.00;94418.31;10443532;28;20004;-77
2021/11/30 19:38:07;;;;;;;;;;;;;;;-1.92;100.00;94418.91;10424972;28;19917;-77
2021/11/30 19:43:14;;;;;;;;;;;;;;;-1.89;100.00;94415.88;10443186;28;19999;-77
2021/11/30 19:48:15;;;;;;;;;;;;;;;-1.89;100.00;94415.88;10421880;28;19924;-74
2021/11/30 19:53:16;;;;;;;;;;;;;;;-2.09;100.00;94415.09;10425260;28;20358;-74
2021/11/30 19:58:18;;;;;;;;;;;;;;;-2.00;100.00;94432.28;10426765;28;20409;-75
2021/11/30 20:08:37;;;;;;;;;;;;;;;-1.88;100.00;94450.94;10435819;28;19920;-74
2021/11/30 20:13:38;;;;;;;;;;;;;;;-1.85;100.00;94452.38;10444467;28;19920;-74
2021/11/30 20:18:39;;;;;;;;;;;;;;;-1.83;100.00;94455.59;10400781;28;19936;-74
2021/11/30 20:23:39;;;;;;;;;;;;;;;-1.84;100.00;94439.00;10386394;28;20342;-76
2021/11/30 20:28:40;;;;;;;;;;;;;;;-2.03;100.00;94445.06;10391472;28;19948;-71
2021/11/30 20:33:42;;;;;;;;;;;;;;;-1.99;100.00;94435.75;10401643;28;19979;-77
2021/11/30 20:38:58;;;;;;;;;;;;;;;-1.95;100.00;94437.78;10404228;28;20318;-76
2021/11/30 20:43:58;;;;;;;;;;;;;;;-1.99;100.00;94431.28;10385786;28;20661;-74
2021/11/30 20:49:21;;;;;;;;;;;;;;;-2.05;100.00;94440.00;10603465;27;19915;-74
2021/11/30 20:54:23;;;;;;;;;;;;;;;-2.10;100.00;94434.53;10579762;27;19916;-77
2021/11/30 20:59:24;;;;;;;;;;;;;;;-2.09;100.00;94441.41;10562930;28;20370;-73
2021/11/30 21:04:28;;;;;;;;;;;;;;;-2.10;100.00;94439.78;10541078;28;19969;-74
2021/11/30 21:09:28;;;;;;;;;;;;;;;-2.14;100.00;94442.00;10564161;28;20441;-77
2021/11/30 21:14:28;;;;;;;;;;;;;;;-2.09;100.00;94425.63;10559655;28;20200;-80
2021/11/30 21:19:29;;;;;;;;;;;;;;;-2.06;100.00;94430.47;10553328;28;20318;-73
2021/11/30 21:24:29;;;;;;;;;;;;;;;-1.97;100.00;94428.44;10517188;28;20130;-74
2021/11/30 21:29:29;;;;;;;;;;;;;;;-1.99;100.00;94431.28;10534989;28;19927;-73
2021/11/30 21:34:30;;;;;;;;;;;;;;;-2.11;100.00;94438.16;10533157;28;19912;-73
2021/11/30 21:39:30;;;;;;;;;;;;;;;-2.21;100.00;94437.75;10537583;28;19912;-73
2021/11/30 21:44:32;;;;;;;;;;;;;;;-2.16;100.00;94424.78;10548502;28;20453;-74
2021/11/30 21:49:34;;;;;;;;;;;;;;;-2.16;100.00;94427.41;10515542;28;19916;-73
2021/11/30 21:54:35;;;;;;;;;;;;;;;-2.41;100.00;94431.44;10549437;28;19912;-76
2021/11/30 21:59:37;;;;;;;;;;;;;;;-2.49;100.00;94442.16;10510358;28;19989;-75
2021/11/30 22:04:37;;;;;;;;;;;;;;;-2.72;100.00;94446.94;10486878;28;19920;-77
2021/11/30 22:09:38;;;;;;;;;;;;;;;-2.80;100.00;94442.69;10487044;28;19916;-76
2021/11/30 22:14:38;;;;;;;;;;;;;;;-2.84;100.00;94454.63;10487249;28;20121;-72
2021/11/30 22:19:39;;;;;;;;;;;;;;;-2.99;100.00;94452.13;10487079;28;19912;-77
2021/11/30 22:24:40;;;;;;;;;;;;;;;-2.97;100.00;94465.91;10512131;28;19912;-72
2021/11/30 22:29:40;;;;;;;;;;;;;;;-2.89;100.00;94460.44;10529472;28;19954;-73
2021/11/30 22:34:42;;;;;;;;;;;;;;;-2.97;100.00;94460.63;10528145;28;19919;-74
2021/11/30 22:39:43;;;;;;;;;;;;;;;-2.98;100.00;94459.00;10527560;28;20048;-74
2021/11/30 22:44:43;;;;;;;;;;;;;;;-3.01;100.00;94443.63;10527431;28;19959;-75
2021/11/30 22:49:43;;;;;;;;;;;;;;;-3.08;100.00;94454.09;10527520;28;19916;-74
2021/11/30 22:54:46;;;;;;;;;;;;;;;-3.29;100.00;94444.50;10529505;28;19916;-75
2021/11/30 22:59:46;;;;;;;;;;;;;;;-3.37;100.00;94450.72;10528588;28;20334;-74
2021/11/30 23:04:47;;;;;;;;;;;;;;;-3.57;100.00;94447.97;10528083;28;19916;-72
2021/11/30 23:09:49;;;;;;;;;;;;;;;-3.55;100.00;94438.09;10528418;28;19999;-76
2021/11/30 23:14:50;;;;;;;;;;;;;;;-3.67;100.00;94426.50;10528454;28;19927;-72
2021/11/30 23:19:50;;;;;;;;;;;;;;;-3.55;100.00;94418.91;10527920;28;19912;-75
2021/11/30 23:29:51;;;;;;;;;;;;;;;-3.41;100.00;94396.94;10501150;28;20509;-76
2021/11/30 23:34:51;;;;;;;;;;;;;;;-3.38;100.00;94383.41;10514982;28;20028;-74
2021/11/30 23:39:53;;;;;;;;;;;;;;;-3.32;100.00;94384.44;10485014;28;19984;-77
2021/11/30 23:44:54;;;;;;;;;;;;;;;-3.52;100.00;94379.91;10484835;28;19929;-79
2021/11/30 23:49:54;;;;;;;;;;;;;;;-3.41;100.00;94375.91;10484146;28;20381;-76
2021/11/30 23:54:54;;;;;;;;;;;;;;;-3.37;100.00;94379.78;10492993;28;19912;-78
2021/11/30 23:59:55;;;;;;;;;;;;;;;-3.59;100.00;94386.16;10527966;28;19912;-75
